Aviation Digital Data Service (ADDS)

Output produced by METARs form (2141 UTC 01 February 2023)
found at http://www.aviationweather.gov/metar/data/
 
KATL 012052Z 33005KT 10SM BKN020 BKN065 BKN110 BKN200 14/09 A3016 RMK AO2 SLP211 T01390089 56019
KATL 011931Z 0120/0224 30007KT P6SM OVC012 
     TEMPO 0120/0122 SCT012 BKN050 
     FM020500 31004KT P6SM -SHRA FEW006 OVC012 
     FM021100 32005KT 5SM SHRA BR OVC006 
     FM021700 VRB03KT 3SM BR OVC003